createdAt,value
2019-01-10T00:01:32.156Z,85.18
2019-01-10T00:04:00.434Z,85.09
2019-01-10T00:06:28.841Z,84.99
2019-01-10T00:08:57.106Z,84.49
2019-01-10T00:11:25.397Z,84.36
2019-01-10T00:13:53.817Z,83.85
2019-01-10T00:16:22.105Z,83.63
2019-01-10T00:18:50.358Z,83.35
2019-01-10T00:21:18.781Z,82.10
2019-01-10T00:23:47.060Z,81.98
2019-01-10T00:26:15.324Z,82.01
2019-01-10T00:28:43.746Z,82.36
2019-01-10T00:31:12.152Z,82.52
2019-01-10T00:33:40.403Z,82.05
2019-01-10T00:36:08.763Z,82.12
2019-01-10T00:38:37.009Z,81.62
2019-01-10T00:41:05.262Z,82.42
2019-01-10T00:43:33.581Z,82.04
2019-01-10T00:46:01.873Z,82.50
2019-01-10T00:48:30.149Z,82.05
2019-01-10T00:50:58.471Z,82.42
2019-01-10T00:53:26.723Z,82.26
2019-01-10T00:55:55.065Z,81.81
2019-01-10T00:58:23.395Z,81.84
2019-01-10T01:00:51.680Z,81.60
2019-01-10T01:03:19.939Z,81.40
2019-01-10T01:05:48.285Z,81.72
2019-01-10T01:08:16.554Z,81.49
2019-01-10T01:10:44.820Z,82.04
2019-01-10T01:13:13.157Z,81.16
2019-01-10T01:15:41.428Z,80.80
2019-01-10T01:18:09.687Z,81.00
2019-01-10T01:20:38.070Z,81.57
2019-01-10T01:23:06.682Z,80.93
2019-01-10T01:25:38.032Z,81.60
2019-01-10T01:28:06.565Z,81.01
2019-01-10T01:30:35.106Z,81.22
2019-01-10T01:33:06.574Z,81.57
2019-01-10T01:35:38.044Z,82.08
2019-01-10T01:38:08.545Z,82.36
2019-01-10T01:40:37.116Z,82.20
2019-01-10T01:43:07.434Z,82.09
2019-01-10T01:45:38.210Z,81.33
2019-01-10T01:48:09.608Z,81.47
2019-01-10T01:50:38.012Z,81.83
2019-01-10T01:53:06.364Z,81.07
2019-01-10T01:55:38.432Z,80.96
2019-01-10T01:58:09.876Z,81.04
2019-01-10T02:00:38.251Z,80.57
2019-01-10T02:03:06.736Z,80.88
2019-01-10T02:05:38.215Z,81.50
2019-01-10T02:08:11.386Z,81.25
2019-01-10T02:10:41.680Z,81.00
2019-01-10T02:13:16.635Z,81.20
2019-01-10T02:15:40.234Z,81.90
2019-01-10T02:18:08.651Z,82.07
2019-01-10T02:20:37.006Z,81.61
2019-01-10T02:23:05.529Z,81.01
2019-01-10T02:25:33.921Z,81.15
2019-01-10T02:28:07.218Z,81.39
2019-01-10T02:30:42.096Z,81.03
2019-01-10T02:33:10.928Z,81.26
2019-01-10T02:35:39.532Z,81.29
2019-01-10T02:38:08.024Z,81.94
2019-01-10T02:40:38.566Z,82.38
2019-01-10T02:43:10.534Z,82.86
2019-01-10T02:45:41.333Z,82.32
2019-01-10T02:48:10.944Z,82.41
2019-01-10T02:50:39.727Z,82.69
2019-01-10T02:53:08.215Z,82.89
2019-01-10T02:55:36.601Z,81.91
2019-01-10T02:58:07.663Z,81.97
2019-01-10T03:00:36.195Z,82.43
2019-01-10T03:03:04.671Z,81.54
2019-01-10T03:05:37.330Z,81.33
2019-01-10T03:08:09.327Z,80.83
2019-01-10T03:10:44.859Z,80.91
2019-01-10T03:13:16.219Z,81.34
2019-01-10T03:15:44.565Z,80.64
2019-01-10T03:18:15.459Z,80.19
2019-01-10T03:20:52.629Z,80.52
2019-01-10T03:23:21.314Z,79.64
2019-01-10T03:25:52.663Z,80.48
2019-01-10T03:28:31.068Z,79.91
2019-01-10T03:31:00.804Z,80.40
2019-01-10T03:33:34.519Z,80.58
2019-01-10T03:36:05.533Z,80.91
2019-01-10T03:38:34.125Z,80.24
2019-01-10T03:41:02.484Z,79.23
2019-01-10T03:43:30.987Z,79.06
2019-01-10T03:46:00.720Z,79.83
2019-01-10T03:48:29.103Z,79.97
2019-01-10T03:51:00.995Z,80.65
2019-01-10T03:53:32.612Z,80.82
2019-01-10T03:56:01.964Z,80.29
2019-01-10T03:58:34.604Z,80.53
2019-01-10T04:01:03.014Z,81.12
2019-01-10T04:03:38.645Z,80.89
2019-01-10T04:06:09.032Z,80.86
2019-01-10T04:08:37.438Z,80.70
2019-01-10T04:11:05.963Z,81.85
2019-01-10T04:13:37.137Z,81.30
2019-01-10T04:16:05.636Z,80.73
2019-01-10T04:18:34.154Z,80.54
2019-01-10T04:21:02.672Z,80.31
2019-01-10T04:23:32.729Z,79.79
2019-01-10T04:26:02.587Z,80.28
2019-01-10T04:28:31.364Z,80.96
2019-01-10T04:31:02.048Z,80.50
2019-01-10T04:33:33.328Z,80.17
2019-01-10T04:36:02.209Z,78.98
2019-01-10T04:38:37.424Z,78.92
2019-01-10T04:41:06.452Z,78.90
2019-01-10T04:43:35.015Z,80.12
2019-01-10T04:46:29.706Z,80.15
2019-01-10T04:49:03.507Z,79.69
2019-01-10T04:51:42.155Z,79.54
2019-01-10T04:54:25.974Z,79.79
2019-01-10T05:40:27.945Z,79.49
2019-01-10T06:21:55.433Z,79.35
2019-01-10T06:30:45.604Z,79.31
2019-01-10T06:33:53.919Z,78.37
2019-01-10T06:36:38.097Z,78.86
2019-01-10T06:39:19.975Z,78.37
2019-01-10T06:41:49.667Z,78.66
2019-01-10T06:44:44.622Z,79.35
2019-01-10T06:47:11.664Z,77.85
2019-01-10T06:49:39.979Z,78.06
2019-01-10T06:52:14.237Z,77.83
2019-01-10T06:54:43.295Z,78.09
2019-01-10T06:57:11.875Z,78.14
2019-01-10T06:59:40.176Z,78.36
2019-01-10T07:02:08.380Z,77.54
2019-01-10T07:04:39.877Z,78.23
2019-01-10T07:07:08.279Z,78.69
2019-01-10T07:09:36.740Z,79.17
2019-01-10T07:12:05.024Z,79.49
2019-01-10T07:14:33.411Z,78.77
2019-01-10T07:17:01.872Z,79.27
2019-01-10T07:19:47.849Z,78.83
2019-01-10T07:22:17.107Z,79.62
2019-01-10T07:24:49.079Z,78.92
2019-01-10T07:27:17.864Z,78.11
2019-01-10T07:29:47.785Z,78.47
2019-01-10T07:32:16.074Z,79.10
2019-01-10T07:34:44.492Z,78.63
2019-01-10T07:37:13.224Z,78.98
2019-01-10T07:39:41.615Z,79.30
2019-01-10T07:42:10.053Z,81.15
2019-01-10T07:44:38.423Z,81.23
2019-01-10T07:47:08.246Z,80.34
2019-01-10T07:49:58.224Z,80.06
2019-01-10T07:52:58.345Z,79.94
2019-01-10T07:55:35.425Z,79.75
2019-01-10T07:58:11.811Z,79.70
2019-01-10T08:04:05.504Z,79.89
2019-01-10T08:13:27.991Z,80.61
2019-01-10T09:43:24.704Z,84.20
2019-01-10T09:46:02.278Z,84.41
2019-01-10T09:48:45.400Z,83.86
2019-01-10T09:51:17.356Z,83.65
2019-01-10T09:53:45.859Z,83.98
2019-01-10T09:56:32.364Z,83.83
2019-01-10T09:59:00.812Z,83.52
2019-01-10T10:01:29.371Z,83.72
2019-01-10T10:03:57.703Z,85.03
2019-01-10T10:06:26.168Z,84.76
2019-01-10T10:08:54.521Z,84.74
2019-01-10T10:11:22.817Z,85.08
2019-01-10T10:13:51.175Z,85.63
2019-01-10T10:16:19.479Z,85.59
2019-01-10T10:18:47.876Z,84.90
2019-01-10T10:21:16.266Z,84.44
2019-01-10T10:23:44.503Z,84.65
2019-01-10T10:26:12.768Z,85.20
2019-01-10T10:28:41.159Z,85.18
2019-01-10T10:31:09.437Z,85.48
2019-01-10T10:33:37.692Z,86.15
2019-01-10T10:36:06.184Z,86.34
2019-01-10T10:38:34.547Z,86.87
2019-01-10T10:41:02.776Z,86.26
2019-01-10T10:43:31.071Z,87.03
2019-01-10T10:46:01.762Z,87.14
2019-01-10T10:48:29.243Z,87.31
2019-01-10T10:50:57.535Z,87.58
2019-01-10T10:53:25.780Z,87.30
2019-01-10T10:55:54.035Z,87.25
2019-01-10T10:58:22.436Z,86.68
2019-01-10T11:00:50.667Z,86.33
2019-01-10T11:03:18.903Z,86.61
2019-01-10T11:05:47.284Z,86.31
2019-01-10T11:08:15.517Z,86.67
2019-01-10T11:10:43.802Z,86.71
2019-01-10T11:13:12.179Z,86.49
2019-01-10T11:15:40.432Z,87.20
2019-01-10T11:18:08.683Z,87.43
2019-01-10T11:20:37.176Z,87.17
2019-01-10T11:23:10.416Z,87.49
2019-01-10T11:25:35.340Z,87.32
2019-01-10T11:28:04.107Z,87.40
2019-01-10T11:30:32.371Z,87.19
2019-01-10T11:33:00.644Z,86.89
2019-01-10T11:35:28.935Z,87.01
2019-01-10T11:37:57.218Z,87.11
2019-01-10T11:40:25.471Z,86.79
2019-01-10T11:42:53.879Z,86.79
2019-01-10T11:45:23.110Z,86.79
2019-01-10T11:47:51.379Z,86.83
2019-01-10T11:50:19.691Z,87.02
2019-01-10T11:52:48.164Z,86.22
2019-01-10T11:55:16.409Z,86.62
2019-01-10T11:57:44.891Z,86.89
2019-01-10T12:00:20.532Z,87.08
2019-01-10T12:02:49.088Z,86.82
2019-01-10T12:05:17.423Z,86.90
2019-01-10T12:07:45.834Z,86.35
2019-01-10T12:10:14.237Z,86.71
2019-01-10T12:12:42.557Z,87.12
2019-01-10T12:15:10.900Z,86.21
2019-01-10T12:17:39.308Z,86.07
2019-01-10T12:20:08.493Z,86.48
2019-01-10T12:22:36.911Z,86.34
2019-01-10T12:25:05.688Z,86.63
2019-01-10T12:27:33.996Z,86.99
2019-01-10T12:30:02.284Z,86.27
2019-01-10T12:32:30.730Z,86.63
2019-01-10T12:34:59.129Z,86.51
2019-01-10T12:37:27.571Z,86.69
2019-01-10T12:39:55.907Z,86.37
2019-01-10T12:42:24.185Z,86.15
2019-01-10T12:44:52.537Z,86.06
2019-01-10T12:47:20.983Z,86.02
2019-01-10T12:49:49.442Z,86.41
2019-01-10T12:52:17.743Z,86.06
2019-01-10T12:54:46.149Z,85.91
2019-01-10T12:57:14.408Z,86.02
2019-01-10T12:59:42.688Z,86.32
2019-01-10T13:02:11.012Z,86.55
2019-01-10T13:04:39.307Z,86.28
2019-01-10T13:07:07.887Z,86.00
2019-01-10T13:09:36.571Z,85.32
2019-01-10T13:12:05.108Z,85.50
2019-01-10T13:14:38.959Z,85.89
2019-01-10T13:17:07.879Z,85.81
2019-01-10T13:19:36.784Z,85.57
2019-01-10T13:22:05.270Z,85.35
2019-01-10T13:24:33.898Z,85.13
2019-01-10T13:27:02.177Z,85.43
2019-01-10T13:29:30.743Z,85.53
2019-01-10T13:31:59.141Z,85.80
2019-01-10T13:34:27.504Z,85.87
2019-01-10T13:36:56.022Z,86.37
2019-01-10T13:39:24.337Z,86.08
2019-01-10T13:41:52.692Z,86.64
2019-01-10T13:44:21.003Z,86.18
2019-01-10T13:46:55.569Z,86.26
2019-01-10T13:49:19.389Z,86.30
2019-01-10T13:51:47.669Z,86.32
2019-01-10T13:54:16.891Z,86.29
2019-01-10T13:56:45.473Z,86.79
2019-01-10T14:01:42.747Z,86.86
2019-01-10T14:04:11.192Z,87.02
2019-01-10T14:06:39.520Z,86.72
2019-01-10T14:09:09.155Z,86.59
2019-01-10T14:11:37.465Z,86.66
2019-01-10T14:14:06.011Z,86.80
2019-01-10T14:16:36.976Z,87.16
2019-01-10T14:19:05.520Z,88.03
2019-01-10T14:21:33.925Z,88.12
2019-01-10T14:24:02.407Z,87.97
2019-01-10T14:26:30.980Z,87.63
2019-01-10T14:28:59.465Z,87.88
2019-01-10T14:31:29.834Z,87.91
2019-01-10T14:33:59.347Z,87.38
2019-01-10T14:36:27.572Z,87.73
2019-01-10T14:38:59.016Z,88.06
2019-01-10T14:41:29.181Z,87.80
2019-01-10T14:43:57.468Z,88.11
2019-01-10T14:46:26.099Z,88.01
2019-01-10T14:48:54.447Z,87.86
2019-01-10T14:51:22.796Z,87.60
2019-01-10T14:53:51.125Z,87.81
2019-01-10T14:56:19.471Z,88.29
2019-01-10T14:58:48.004Z,88.06
2019-01-10T15:01:16.476Z,87.76
2019-01-10T15:03:44.765Z,87.75
2019-01-10T15:06:13.026Z,87.95
2019-01-10T15:08:41.387Z,87.63
2019-01-10T15:11:09.695Z,87.71
2019-01-10T15:13:37.956Z,88.10
2019-01-10T15:16:06.405Z,88.22
2019-01-10T15:18:34.724Z,88.23
2019-01-10T15:21:03.047Z,88.41
2019-01-10T15:23:31.476Z,89.10
2019-01-10T15:25:59.769Z,88.65
2019-01-10T15:28:28.173Z,88.26
2019-01-10T15:30:57.255Z,88.18
2019-01-10T15:33:25.680Z,88.29
2019-01-10T15:35:53.982Z,88.17
2019-01-10T15:38:24.717Z,87.45
2019-01-10T15:40:53.373Z,87.34
2019-01-10T15:43:21.643Z,87.29
2019-01-10T15:45:49.967Z,87.00
2019-01-10T15:48:19.675Z,86.98
2019-01-10T15:50:51.367Z,86.68
2019-01-10T15:53:19.862Z,86.80
2019-01-10T15:55:48.108Z,86.25
2019-01-10T15:58:16.386Z,86.55
2019-01-10T16:00:44.956Z,86.24
2019-01-10T16:03:13.429Z,86.31
2019-01-10T16:05:41.894Z,86.34
2019-01-10T16:08:10.897Z,86.24
2019-01-10T16:10:39.357Z,86.37
2019-01-10T16:13:08.053Z,86.22
2019-01-10T16:15:37.001Z,86.25
2019-01-10T16:18:05.364Z,86.13
2019-01-10T16:20:33.614Z,85.71
2019-01-10T16:23:02.131Z,86.21
2019-01-10T16:25:30.428Z,85.92
2019-01-10T16:27:58.677Z,85.37
2019-01-10T16:30:28.153Z,85.79
2019-01-10T16:32:56.476Z,85.98
2019-01-10T16:35:25.063Z,86.01
2019-01-10T16:37:53.437Z,85.90
2019-01-10T16:40:21.735Z,85.48
2019-01-10T16:42:50.123Z,85.27
2019-01-10T16:45:19.997Z,85.44
2019-01-10T16:47:48.355Z,85.64
2019-01-10T16:50:16.695Z,86.00
2019-01-10T16:52:45.124Z,86.00
2019-01-10T16:55:13.514Z,86.45
2019-01-10T16:57:41.983Z,86.23
2019-01-10T17:00:21.216Z,86.35
2019-01-10T17:02:49.585Z,85.93
2019-01-10T17:05:17.987Z,86.20
2019-01-10T17:07:48.314Z,86.33
2019-01-10T17:10:18.117Z,86.08
2019-01-10T17:12:47.615Z,86.43
2019-01-10T17:15:16.800Z,86.78
2019-01-10T17:17:46.401Z,86.67
2019-01-10T17:20:17.848Z,86.90
2019-01-10T17:22:46.400Z,87.07
2019-01-10T17:25:35.797Z,86.84
2019-01-10T17:28:07.608Z,86.94
2019-01-10T17:30:37.918Z,86.62
2019-01-10T17:33:06.844Z,87.10
2019-01-10T18:01:34.136Z,86.57
2019-01-10T18:18:48.827Z,87.16
2019-01-10T19:09:17.335Z,87.24
2019-01-10T19:12:09.697Z,87.55
2019-01-10T19:14:46.868Z,87.34
2019-01-10T19:17:26.080Z,87.60
2019-01-10T19:19:51.641Z,87.38
2019-01-10T19:22:27.183Z,87.65
2019-01-10T19:24:58.998Z,87.66
2019-01-10T19:27:27.891Z,87.75
2019-01-10T19:29:56.889Z,87.87
2019-01-10T19:32:37.984Z,87.48
2019-01-10T19:35:06.558Z,87.95
2019-01-10T19:37:35.129Z,88.21
2019-01-10T19:40:03.683Z,89.07
2019-01-10T19:42:34.184Z,88.21
2019-01-10T19:45:05.147Z,88.32
2019-01-10T19:47:34.303Z,88.48
2019-01-10T19:50:03.426Z,88.32
2019-01-10T19:52:32.902Z,88.63
2019-01-10T19:55:01.713Z,89.03
2019-01-10T19:57:30.305Z,89.30
2019-01-10T19:59:59.172Z,89.54
2019-01-10T20:02:28.633Z,89.50
2019-01-10T20:04:56.995Z,89.63
2019-01-10T20:07:26.679Z,89.54
2019-01-10T20:09:55.477Z,89.61
2019-01-10T20:12:25.297Z,89.43
2019-01-10T20:14:58.673Z,89.71
2019-01-10T20:17:32.761Z,89.79
2019-01-10T20:20:01.651Z,89.92
2019-01-10T20:22:41.056Z,89.61
2019-01-10T20:25:11.465Z,89.92
2019-01-10T20:27:39.953Z,90.08
2019-01-10T20:30:10.116Z,90.14
2019-01-10T20:32:38.661Z,89.91
2019-01-10T20:35:09.041Z,89.80
2019-01-10T20:37:38.051Z,90.13
2019-01-10T20:40:12.725Z,90.23
2019-01-10T20:42:50.233Z,90.34
2019-01-10T20:45:26.274Z,90.25
2019-01-10T20:48:29.301Z,90.29
2019-01-10T20:51:11.041Z,89.94
2019-01-10T20:57:08.604Z,90.46
2019-01-10T21:00:18.590Z,90.50
2019-01-10T21:03:02.312Z,90.28
2019-01-10T21:05:39.923Z,90.35
2019-01-10T21:15:39.741Z,90.52
2019-01-10T21:24:20.834Z,90.16
2019-01-10T21:33:39.172Z,89.95
2019-01-10T22:05:55.683Z,90.93
2019-01-10T22:08:51.307Z,90.97
2019-01-10T22:15:27.548Z,91.13
